Time;durP1;ratioP1;P1;durP2;ratioP2;P2;SDS_P1;SDS_P2;PMS_P1;PMS_P2;Temp;Humidity;BMP_temperature;BMP_pressure;BME280_temperature;BME280_humidity;BME280_pressure;Samples;Min_cycle;Max_cycle;Signal;HPM_P1;HPM_P2
2023/06/12 00:00:38;;;;;;;4.28;3.53;;;22.90;1.00;;;;;;5022076;28;20059;-57
2023/06/12 00:03:05;;;;;;;3.92;3.17;;;22.90;1.00;;;;;;5034844;28;20515;-57
2023/06/12 00:05:30;;;;;;;4.07;3.17;;;22.80;1.00;;;;;;5034582;28;20016;-58
2023/06/12 00:07:57;;;;;;;3.33;3.03;;;22.90;1.00;;;;;;5034613;28;20046;-55
2023/06/12 00:10:23;;;;;;;3.92;3.63;;;22.80;1.00;;;;;;5034617;28;20030;-56
2023/06/12 00:12:49;;;;;;;3.78;3.47;;;22.90;1.00;;;;;;5032827;28;20018;-56
2023/06/12 00:15:15;;;;;;;3.85;3.22;;;22.70;1.00;;;;;;5033406;28;20025;-55
2023/06/12 00:17:41;;;;;;;4.10;3.70;;;22.70;1.00;;;;;;5032303;28;20068;-57
2023/06/12 00:23:29;;;;;;;5.40;3.47;;;22.60;1.00;;;;;;5030825;28;20038;-53
2023/06/12 00:25:55;;;;;;;3.78;3.47;;;22.60;1.00;;;;;;5034524;28;20029;-54
2023/06/12 00:28:20;;;;;;;4.05;3.33;;;22.80;1.00;;;;;;5032877;28;20068;-56
2023/06/12 00:30:46;;;;;;;6.10;3.40;;;22.70;1.00;;;;;;5020351;28;20075;-56
2023/06/12 00:33:12;;;;;;;3.28;2.97;;;22.70;1.00;;;;;;5032990;28;20040;-57
2023/06/12 00:35:37;;;;;;;3.10;2.80;;;22.70;1.00;;;;;;5034199;28;20033;-55
2023/06/12 00:38:06;;;;;;;4.10;2.40;;;22.90;1.00;;;;;;5033984;28;20029;-58
2023/06/12 00:40:32;;;;;;;2.30;2.17;;;22.90;1.00;;;;;;5039175;28;20431;-56
2023/06/12 00:42:57;;;;;;;2.33;2.13;;;22.90;1.00;;;;;;5033873;28;20104;-53
2023/06/12 00:45:23;;;;;;;2.10;2.00;;;22.90;1.00;;;;;;5033937;28;20049;-56
2023/06/12 00:47:53;;;;;;;1.90;1.80;;;22.80;1.00;;;;;;5033589;28;20049;-57
2023/06/12 00:50:25;;;;;;;3.70;1.85;;;22.60;1.00;;;;;;5033717;28;20119;-56
2023/06/12 00:52:53;;;;;;;2.45;2.10;;;22.70;1.00;;;;;;5033851;28;20026;-56
2023/06/12 00:55:19;;;;;;;2.40;2.20;;;22.80;1.00;;;;;;5033543;28;20486;-57
2023/06/12 00:57:46;;;;;;;3.30;2.65;;;22.50;1.00;;;;;;5033772;28;20060;-57
2023/06/12 01:00:14;;;;;;;5.30;2.83;;;22.50;1.00;;;;;;5033685;28;20033;-56
2023/06/12 01:02:44;;;;;;;2.55;2.35;;;22.50;1.00;;;;;;5032380;28;20017;-58
2023/06/12 01:05:14;;;;;;;2.97;2.78;;;22.60;1.00;;;;;;5033920;28;20037;-58
2023/06/12 01:08:01;;;;;;;3.17;2.85;;;22.60;1.00;;;;;;5033664;28;20083;-56
2023/06/12 01:10:36;;;;;;;2.90;2.70;;;22.60;1.00;;;;;;5033566;28;20144;-55
2023/06/12 01:13:03;;;;;;;3.90;3.58;;;22.60;1.00;;;;;;5020210;28;20037;-57
2023/06/12 01:15:29;;;;;;;4.22;3.80;;;22.60;1.00;;;;;;5032987;28;20430;-57
2023/06/12 01:17:58;;;;;;;3.47;3.17;;;22.60;1.00;;;;;;5030971;28;20053;-56
2023/06/12 01:20:24;;;;;;;2.88;2.67;;;22.60;1.00;;;;;;5033182;28;20608;-57
2023/06/12 01:23:18;;;;;;;2.85;2.65;;;22.60;1.00;;;;;;5033523;28;20043;-57
2023/06/12 01:25:52;;;;;;;3.45;2.88;;;22.60;1.00;;;;;;5033590;28;20029;-58
2023/06/12 01:28:52;;;;;;;2.92;2.65;;;22.60;1.00;;;;;;5033112;28;20087;-57
2023/06/12 01:31:34;;;;;;;2.35;2.15;;;22.60;1.00;;;;;;5033067;28;20034;-55
2023/06/12 01:34:15;;;;;;;2.00;1.90;;;22.60;1.00;;;;;;5031163;28;20037;-58
2023/06/12 01:36:46;;;;;;;2.47;2.28;;;22.70;1.00;;;;;;5032320;28;20164;-56
2023/06/12 01:39:16;;;;;;;2.38;2.20;;;22.60;1.00;;;;;;5032543;28;20125;-57
2023/06/12 01:41:43;;;;;;;3.45;2.67;;;22.70;1.00;;;;;;5032463;28;20017;-58
2023/06/12 01:47:43;;;;;;;3.22;2.95;;;22.80;1.00;;;;;;5027008;28;20045;-57
2023/06/12 01:50:10;;;;;;;3.78;3.33;;;22.80;1.00;;;;;;5031329;28;20033;-58
2023/06/12 01:52:38;;;;;;;3.72;2.80;;;22.70;1.00;;;;;;5032997;28;20025;-55
2023/06/12 01:55:05;;;;;;;3.40;3.08;;;22.80;1.00;;;;;;5032764;28;20083;-54
2023/06/12 01:57:32;;;;;;;3.40;3.10;;;22.80;1.00;;;;;;5033118;28;20014;-54
2023/06/12 01:59:59;;;;;;;3.08;2.88;;;22.80;1.00;;;;;;5033121;28;20049;-53
2023/06/12 02:02:26;;;;;;;3.25;2.97;;;22.80;1.00;;;;;;5021551;28;20107;-56
2023/06/12 02:04:51;;;;;;;4.07;3.42;;;22.70;1.00;;;;;;5029272;28;20037;-55
2023/06/12 02:07:17;;;;;;;3.00;2.80;;;22.80;1.00;;;;;;5035655;28;20037;-54
2023/06/12 02:09:43;;;;;;;3.30;2.80;;;22.80;1.00;;;;;;5025144;28;20030;-57
2023/06/12 02:12:09;;;;;;;2.83;2.63;;;22.80;1.00;;;;;;5030066;28;20077;-57
2023/06/12 02:14:35;;;;;;;2.65;2.28;;;22.80;1.00;;;;;;5029123;28;20104;-56
2023/06/12 02:20:42;;;;;;;2.30;2.10;;;22.80;1.00;;;;;;5021809;28;20149;-55
2023/06/12 02:23:08;;;;;;;2.20;2.00;;;22.70;1.00;;;;;;5022738;28;20491;-56
2023/06/12 02:25:33;;;;;;;2.53;2.33;;;22.70;1.00;;;;;;5032492;28;20032;-57
2023/06/12 02:27:59;;;;;;;2.97;2.65;;;22.70;1.00;;;;;;5028391;28;20040;-58
2023/06/12 02:30:25;;;;;;;2.42;2.22;;;22.70;1.00;;;;;;5032835;28;20377;-54
2023/06/12 02:32:52;;;;;;;2.25;2.10;;;22.70;1.00;;;;;;5034331;28;20080;-55
2023/06/12 02:35:17;;;;;;;3.58;2.22;;;22.70;1.00;;;;;;5032028;28;20021;-58
2023/06/12 02:37:43;;;;;;;2.42;2.15;;;22.70;1.00;;;;;;5034569;28;20021;-58
2023/06/12 02:40:09;;;;;;;2.47;2.28;;;22.70;1.00;;;;;;5029244;28;20039;-57
2023/06/12 02:42:35;;;;;;;2.38;2.17;;;22.70;1.00;;;;;;5027967;28;20033;-57
2023/06/12 02:45:00;;;;;;;2.92;2.28;;;22.70;1.00;;;;;;5030840;28;20025;-57
2023/06/12 02:47:26;;;;;;;2.55;2.35;;;22.70;1.00;;;;;;5034225;28;20437;-57
2023/06/12 02:49:52;;;;;;;3.25;2.30;;;22.70;1.00;;;;;;5027969;28;20501;-57
2023/06/12 02:52:17;;;;;;;2.15;2.05;;;22.70;1.00;;;;;;5031515;28;20368;-57
2023/06/12 02:54:43;;;;;;;2.58;2.00;;;22.60;1.00;;;;;;5026555;28;20474;-58
2023/06/12 02:57:09;;;;;;;2.20;2.03;;;22.70;1.00;;;;;;5026540;28;20025;-58
2023/06/12 02:59:34;;;;;;;2.47;2.28;;;22.60;1.00;;;;;;5030794;28;20084;-58
2023/06/12 03:02:00;;;;;;;1.95;1.73;;;22.60;1.00;;;;;;5031502;28;20033;-55
2023/06/12 03:04:27;;;;;;;1.92;1.80;;;22.60;1.00;;;;;;5030993;28;20018;-57
2023/06/12 03:06:53;;;;;;;1.77;1.67;;;22.60;1.00;;;;;;5032459;28;20049;-56
2023/06/12 03:09:20;;;;;;;2.35;1.77;;;22.60;1.00;;;;;;5032340;28;20040;-56
2023/06/12 03:11:47;;;;;;;1.88;1.60;;;22.60;1.00;;;;;;5033471;28;20040;-56
2023/06/12 03:14:13;;;;;;;1.90;1.80;;;22.60;1.00;;;;;;5027173;28;20033;-56
2023/06/12 03:16:39;;;;;;;1.85;1.55;;;22.60;1.00;;;;;;5028806;28;20025;-55
2023/06/12 03:19:07;;;;;;;1.45;1.35;;;22.60;1.00;;;;;;5032263;28;20497;-56
2023/06/12 03:21:35;;;;;;;1.63;1.52;;;22.50;1.00;;;;;;5027249;28;20033;-57
2023/06/12 03:24:01;;;;;;;1.83;1.63;;;22.60;1.00;;;;;;5028927;28;20489;-54
2023/06/12 03:26:30;;;;;;;1.70;1.60;;;22.70;1.00;;;;;;5032386;28;20104;-53
2023/06/12 03:28:56;;;;;;;1.63;1.52;;;22.70;1.00;;;;;;5028509;28;20125;-56
2023/06/12 03:31:25;;;;;;;1.48;1.35;;;22.60;1.00;;;;;;5032647;28;20116;-56
2023/06/12 03:33:51;;;;;;;2.45;2.05;;;22.60;1.00;;;;;;5027663;28;20100;-56
2023/06/12 03:36:19;;;;;;;1.85;1.75;;;22.70;1.00;;;;;;5023486;28;20056;-56
2023/06/12 03:38:46;;;;;;;1.80;1.70;;;22.70;1.00;;;;;;5029703;28;20053;-57
2023/06/12 03:41:11;;;;;;;1.67;1.58;;;22.60;1.00;;;;;;5037471;28;20021;-57
2023/06/12 03:43:37;;;;;;;1.70;1.60;;;22.60;1.00;;;;;;5029060;28;20034;-57
2023/06/12 03:46:04;;;;;;;2.88;2.03;;;22.60;1.00;;;;;;5029526;28;20026;-57
2023/06/12 03:48:29;;;;;;;2.20;2.00;;;22.50;1.00;;;;;;5034863;28;20057;-56
2023/06/12 03:50:55;;;;;;;2.17;1.98;;;22.50;1.00;;;;;;5029347;28;20018;-54
2023/06/12 03:53:20;;;;;;;3.58;2.20;;;22.50;1.00;;;;;;5030245;28;20037;-57
2023/06/12 03:55:46;;;;;;;2.20;1.98;;;22.50;1.00;;;;;;5029359;28;20017;-57
2023/06/12 03:58:16;;;;;;;3.58;2.30;;;22.50;1.00;;;;;;5033256;28;20044;-57
2023/06/12 04:00:47;;;;;;;2.50;2.30;;;22.40;1.00;;;;;;5032405;28;20367;-57
2023/06/12 04:03:17;;;;;;;2.97;2.78;;;22.40;1.00;;;;;;5030907;28;20080;-57
2023/06/12 04:05:45;;;;;;;2.72;2.53;;;22.30;1.00;;;;;;5023019;28;20025;-54
2023/06/12 04:08:10;;;;;;;2.75;2.55;;;22.30;1.00;;;;;;5031500;28;20395;-58
2023/06/12 04:10:36;;;;;;;2.92;2.70;;;22.30;1.00;;;;;;5035495;28;20022;-57
2023/06/12 04:13:01;;;;;;;3.03;2.50;;;22.40;1.00;;;;;;5029909;28;20030;-57
2023/06/12 04:15:29;;;;;;;3.50;2.95;;;22.40;1.00;;;;;;5021849;28;20037;-56
2023/06/12 04:17:57;;;;;;;3.83;2.97;;;22.30;1.00;;;;;;5031888;28;20029;-57
2023/06/12 04:20:23;;;;;;;5.00;3.17;;;22.40;1.00;;;;;;5025620;28;20028;-58
2023/06/12 04:22:50;;;;;;;5.57;3.22;;;22.40;1.00;;;;;;5026453;28;20022;-58
2023/06/12 04:25:15;;;;;;;3.28;3.03;;;22.50;1.00;;;;;;5033615;28;20501;-57
2023/06/12 04:27:42;;;;;;;4.20;2.92;;;22.50;1.00;;;;;;5032084;28;20029;-56
2023/06/12 04:30:09;;;;;;;2.65;2.45;;;22.50;1.00;;;;;;5024150;28;20024;-56
2023/06/12 04:32:35;;;;;;;3.35;2.65;;;22.40;1.00;;;;;;5031524;28;20049;-56
2023/06/12 04:35:01;;;;;;;3.50;2.47;;;22.50;1.00;;;;;;5024912;28;20451;-56
2023/06/12 04:37:27;;;;;;;2.90;2.70;;;22.40;1.00;;;;;;5032061;28;20028;-56
2023/06/12 04:39:53;;;;;;;2.85;2.53;;;22.40;1.00;;;;;;5031942;28;20029;-56
2023/06/12 04:42:19;;;;;;;2.78;2.50;;;22.20;1.00;;;;;;5031412;28;20529;-57
2023/06/12 04:44:46;;;;;;;3.20;2.90;;;22.20;1.00;;;;;;5028576;28;20033;-57
2023/06/12 04:47:14;;;;;;;3.42;2.42;;;22.20;1.00;;;;;;5026491;28;20052;-55
2023/06/12 04:49:41;;;;;;;3.63;3.00;;;22.30;1.00;;;;;;5029112;28;20083;-55
2023/06/12 04:52:12;;;;;;;6.40;2.90;;;22.40;1.00;;;;;;5027879;28;20030;-53
2023/06/12 04:54:44;;;;;;;6.80;3.15;;;22.60;1.00;;;;;;5029744;28;20075;-57
2023/06/12 04:57:13;;;;;;;4.22;3.17;;;22.60;1.00;;;;;;5031776;28;20125;-55
2023/06/12 04:59:45;;;;;;;3.40;3.13;;;22.50;1.00;;;;;;5029552;28;20029;-57
2023/06/12 05:02:12;;;;;;;3.10;2.90;;;22.60;1.00;;;;;;5036053;28;20022;-57
2023/06/12 05:04:41;;;;;;;3.40;3.10;;;22.60;1.00;;;;;;5045451;28;20111;-58
2023/06/12 05:07:14;;;;;;;3.08;2.72;;;22.60;1.00;;;;;;5040275;28;20366;-57
2023/06/12 05:09:48;;;;;;;3.90;3.50;;;22.70;1.00;;;;;;5039846;28;20033;-57
2023/06/12 05:12:14;;;;;;;4.53;3.60;;;22.70;1.00;;;;;;5024865;28;20025;-57
2023/06/12 05:14:42;;;;;;;4.00;3.60;;;22.80;1.00;;;;;;5031817;28;20368;-56
2023/06/12 05:17:08;;;;;;;3.60;3.30;;;22.90;1.00;;;;;;5031796;28;20116;-59
2023/06/12 05:19:36;;;;;;;4.22;3.65;;;22.90;1.00;;;;;;5034534;28;20461;-56
2023/06/12 05:22:10;;;;;;;4.25;3.85;;;23.00;1.00;;;;;;5028646;28;20033;-58
2023/06/12 05:24:36;;;;;;;3.67;3.33;;;23.00;1.00;;;;;;5020198;28;20026;-57
2023/06/12 05:27:03;;;;;;;5.82;3.33;;;23.00;1.00;;;;;;5024345;28;20033;-57
2023/06/12 05:29:28;;;;;;;4.05;3.38;;;23.00;1.00;;;;;;5025818;28;20033;-56
2023/06/12 05:31:54;;;;;;;3.97;3.42;;;23.10;1.00;;;;;;5026524;28;20353;-57
2023/06/12 05:34:20;;;;;;;4.15;3.17;;;23.20;1.00;;;;;;5028010;28;20065;-59
2023/06/12 05:36:45;;;;;;;4.18;3.80;;;23.10;1.00;;;;;;5029701;28;20473;-57
2023/06/12 05:39:11;;;;;;;5.18;4.10;;;23.10;1.00;;;;;;5026556;28;20028;-57
2023/06/12 05:41:37;;;;;;;4.15;3.47;;;23.10;1.00;;;;;;5034317;28;20033;-57
2023/06/12 05:44:03;;;;;;;6.32;3.35;;;23.00;1.00;;;;;;5033914;28;20398;-57
2023/06/12 05:46:29;;;;;;;4.13;3.80;;;23.10;1.00;;;;;;5027935;28;20045;-56
2023/06/12 05:48:57;;;;;;;6.30;3.75;;;23.10;1.00;;;;;;5017619;28;20042;-56
2023/06/12 05:51:24;;;;;;;7.72;4.53;;;23.20;1.00;;;;;;5023983;28;20164;-57
2023/06/12 05:53:50;;;;;;;3.78;3.47;;;23.10;1.00;;;;;;5024480;28;20037;-58
2023/06/12 05:56:15;;;;;;;4.70;3.60;;;23.00;1.00;;;;;;5024053;28;20079;-58
2023/06/12 05:58:43;;;;;;;3.53;3.13;;;23.20;1.00;;;;;;5029235;28;20037;-58
2023/06/12 06:01:11;;;;;;;5.00;3.22;;;23.10;1.00;;;;;;5032607;28;20021;-58
2023/06/12 06:03:45;;;;;;;5.85;3.20;;;23.30;1.00;;;;;;5033839;28;20037;-57
2023/06/12 06:06:15;;;;;;;5.22;3.50;;;23.40;1.00;;;;;;5034005;28;20025;-58
2023/06/12 06:09:18;;;;;;;3.47;2.95;;;23.50;1.00;;;;;;5059295;28;20435;-59
2023/06/12 06:11:44;;;;;;;4.13;3.58;;;23.50;1.00;;;;;;5029351;28;20091;-58
2023/06/12 06:14:10;;;;;;;5.32;3.92;;;23.40;1.00;;;;;;5029805;28;20030;-58
2023/06/12 06:16:35;;;;;;;5.03;3.72;;;23.50;1.00;;;;;;5033133;28;20375;-57
2023/06/12 06:19:01;;;;;;;6.10;3.80;;;23.50;1.00;;;;;;5039145;28;20035;-59
2023/06/12 06:21:27;;;;;;;7.15;3.42;;;23.30;1.00;;;;;;5028711;28;20161;-58
2023/06/12 06:23:53;;;;;;;5.03;3.25;;;23.50;1.00;;;;;;5033412;28;20064;-58
2023/06/12 06:26:18;;;;;;;6.40;3.33;;;23.40;1.00;;;;;;5022101;28;20022;-59
2023/06/12 06:28:44;;;;;;;4.47;3.33;;;23.20;1.00;;;;;;5028880;28;20053;-59
2023/06/12 06:31:09;;;;;;;5.97;3.75;;;23.30;1.00;;;;;;5030948;28;20030;-58
2023/06/12 06:33:39;;;;;;;5.10;3.28;;;23.40;1.00;;;;;;5030344;28;20037;-59
2023/06/12 06:36:05;;;;;;;4.13;3.70;;;23.50;1.00;;;;;;5033080;28;20033;-59
2023/06/12 06:38:32;;;;;;;2.83;2.63;;;23.50;1.00;;;;;;5034105;28;20045;-57
2023/06/12 06:40:59;;;;;;;8.25;3.50;;;23.50;1.00;;;;;;5034397;28;20032;-57
2023/06/12 06:43:25;;;;;;;5.70;2.72;;;23.50;1.00;;;;;;5035661;28;20014;-58
2023/06/12 06:45:51;;;;;;;5.35;2.92;;;23.50;1.00;;;;;;5029763;28;20036;-57
2023/06/12 06:48:16;;;;;;;3.60;2.70;;;23.60;1.00;;;;;;5020715;28;20045;-58
2023/06/12 06:50:42;;;;;;;2.78;2.30;;;23.60;1.00;;;;;;5030023;28;20060;-58
2023/06/12 06:53:08;;;;;;;3.17;2.10;;;23.60;1.00;;;;;;5032233;28;20040;-59
2023/06/12 06:55:34;;;;;;;3.05;2.47;;;23.80;1.00;;;;;;5033279;28;20030;-59
2023/06/12 06:58:25;;;;;;;5.03;2.33;;;23.80;1.00;;;;;;5029683;28;20029;-57
2023/06/12 07:00:51;;;;;;;4.43;2.22;;;23.90;1.00;;;;;;5046224;28;20034;-58
2023/06/12 07:03:16;;;;;;;2.30;2.10;;;23.80;1.00;;;;;;5031043;28;20030;-58
2023/06/12 07:05:42;;;;;;;2.40;2.20;;;23.90;1.00;;;;;;5026671;28;20509;-62
2023/06/12 07:08:08;;;;;;;3.90;2.20;;;23.90;1.00;;;;;;5030075;28;20044;-65
2023/06/12 07:10:33;;;;;;;3.42;2.13;;;23.80;1.00;;;;;;5029408;28;20057;-64
2023/06/12 07:12:59;;;;;;;2.60;2.40;;;23.80;1.00;;;;;;5021071;28;20034;-64
2023/06/12 07:15:25;;;;;;;3.10;2.50;;;23.90;1.00;;;;;;5027405;28;20014;-65
2023/06/12 07:18:40;;;;;;;3.80;2.78;;;23.80;1.00;;;;;;5024277;28;20441;-64
2023/06/12 07:21:06;;;;;;;4.80;2.50;;;23.90;99.90;;;;;;5031525;28;20241;-63
2023/06/12 07:23:31;;;;;;;2.40;2.17;;;24.00;99.90;;;;;;5029702;28;20471;-63
2023/06/12 07:25:57;;;;;;;2.42;2.20;;;23.90;1.00;;;;;;5028323;28;20487;-63
2023/06/12 07:28:22;;;;;;;2.58;2.10;;;24.10;99.90;;;;;;5027892;28;20083;-64
2023/06/12 07:30:48;;;;;;;4.07;2.20;;;24.10;99.90;;;;;;5028481;28;20068;-64
2023/06/12 07:33:14;;;;;;;2.53;2.33;;;24.10;99.90;;;;;;5033019;28;20029;-63
2023/06/12 07:35:40;;;;;;;3.40;1.90;;;24.20;99.90;;;;;;5030892;28;20048;-63
2023/06/12 07:38:06;;;;;;;2.05;1.88;;;24.30;99.90;;;;;;5029693;28;20057;-61
2023/06/12 07:40:32;;;;;;;1.92;1.55;;;24.40;99.90;;;;;;5032127;28;20497;-61
2023/06/12 07:42:58;;;;;;;2.80;2.03;;;24.30;99.90;;;;;;5029638;28;20033;-61
2023/06/12 07:45:24;;;;;;;1.85;1.75;;;24.30;99.90;;;;;;5029758;28;20387;-61
2023/06/12 07:47:52;;;;;;;1.60;1.50;;;24.30;99.90;;;;;;5027582;28;20053;-61
2023/06/12 07:50:19;;;;;;;2.22;1.85;;;24.40;99.90;;;;;;5032761;28;20029;-59
2023/06/12 07:52:44;;;;;;;3.45;1.77;;;24.60;99.90;;;;;;5031018;28;20037;-60
2023/06/12 07:55:10;;;;;;;4.38;1.80;;;24.60;99.90;;;;;;5032094;28;20030;-61
2023/06/12 07:57:37;;;;;;;4.50;1.83;;;24.70;99.90;;;;;;5030854;28;20025;-61
2023/06/12 08:00:07;;;;;;;2.10;1.90;;;24.80;99.90;;;;;;5028722;28;20398;-61
2023/06/12 08:02:34;;;;;;;1.58;1.45;;;24.80;99.90;;;;;;5026844;28;20048;-61
2023/06/12 08:05:00;;;;;;;1.92;1.83;;;25.00;99.90;;;;;;5025886;28;20018;-60
2023/06/12 08:07:27;;;;;;;3.55;1.60;;;25.10;99.90;;;;;;5027947;28;20080;-61
2023/06/12 08:09:53;;;;;;;1.50;1.33;;;25.10;99.90;;;;;;5027660;28;20033;-62
2023/06/12 08:12:19;;;;;;;2.45;1.80;;;25.00;99.90;;;;;;5031379;28;20029;-62
2023/06/12 08:14:47;;;;;;;2.35;1.50;;;25.00;99.90;;;;;;5022631;28;20041;-63
2023/06/12 08:17:13;;;;;;;4.18;1.85;;;25.00;99.90;;;;;;5028358;28;20036;-60
2023/06/12 08:19:40;;;;;;;1.77;1.50;;;25.00;99.90;;;;;;5031024;28;20044;-61
2023/06/12 08:22:07;;;;;;;1.70;1.55;;;24.90;99.90;;;;;;5030333;28;20022;-62
2023/06/12 08:24:35;;;;;;;2.35;1.63;;;24.90;99.90;;;;;;5029359;28;20032;-59
2023/06/12 08:27:02;;;;;;;1.88;1.50;;;25.00;99.90;;;;;;5029203;28;20037;-60
2023/06/12 08:29:28;;;;;;;2.22;1.35;;;24.90;99.90;;;;;;5030701;28;20068;-59
2023/06/12 08:31:54;;;;;;;2.10;2.00;;;25.00;99.90;;;;;;5028231;28;20033;-60
2023/06/12 08:34:24;;;;;;;2.90;1.25;;;24.90;99.90;;;;;;5030325;28;20352;-62
2023/06/12 08:36:51;;;;;;;4.50;2.22;;;25.00;99.90;;;;;;5022702;28;20834;-63
2023/06/12 08:39:17;;;;;;;2.95;1.92;;;25.10;99.90;;;;;;5033175;28;20080;-62
2023/06/12 08:42:03;;;;;;;2.58;2.22;;;25.20;99.90;;;;;;5027084;28;20161;-60
2023/06/12 08:44:30;;;;;;;3.38;2.22;;;25.20;99.90;;;;;;5027755;28;20026;-58
2023/06/12 08:50:32;;;;;;;3.35;1.73;;;25.40;99.90;;;;;;5017838;28;20084;-60
2023/06/12 08:53:00;;;;;;;3.40;1.75;;;25.60;99.90;;;;;;5027731;28;20030;-59
2023/06/12 08:55:27;;;;;;;2.65;2.38;;;25.90;99.90;;;;;;5032501;28;20053;-61
2023/06/12 08:57:54;;;;;;;2.17;1.98;;;25.90;99.90;;;;;;5029496;28;20036;-64
2023/06/12 09:00:22;;;;;;;2.13;1.95;;;25.90;99.90;;;;;;5032635;28;20075;-58
2023/06/12 09:02:54;;;;;;;2.92;1.98;;;25.90;99.90;;;;;;5028582;28;20025;-61
2023/06/12 09:05:34;;;;;;;2.10;1.80;;;26.00;99.90;;;;;;5029998;28;20021;-59
2023/06/12 09:08:04;;;;;;;2.20;2.00;;;26.20;99.90;;;;;;5031147;28;20041;-56
2023/06/12 09:10:33;;;;;;;2.30;2.10;;;26.20;99.90;;;;;;5021960;28;20040;-59
2023/06/12 09:13:04;;;;;;;2.97;2.17;;;26.30;99.90;;;;;;5023415;28;20078;-59
2023/06/12 09:15:30;;;;;;;3.08;2.63;;;26.30;99.90;;;;;;5026111;28;20029;-61
2023/06/12 09:17:58;;;;;;;8.13;2.13;;;26.10;99.90;;;;;;5027680;28;20033;-61
2023/06/12 09:20:32;;;;;;;2.90;2.63;;;26.30;99.90;;;;;;5014769;28;20029;-61
2023/06/12 09:23:03;;;;;;;3.17;2.70;;;26.30;99.90;;;;;;5026529;28;20120;-58
2023/06/12 09:25:43;;;;;;;2.70;2.50;;;26.20;99.90;;;;;;5031345;28;20022;-57
2023/06/12 09:28:10;;;;;;;2.38;2.17;;;26.20;99.90;;;;;;5021681;28;20025;-61
2023/06/12 09:30:43;;;;;;;2.50;2.30;;;26.10;99.90;;;;;;5030590;28;20562;-61
2023/06/12 09:33:08;;;;;;;2.22;2.00;;;26.00;99.90;;;;;;5025323;28;20024;-62
2023/06/12 09:35:53;;;;;;;5.18;2.35;;;26.00;99.90;;;;;;5025480;28;20037;-56
2023/06/12 09:38:31;;;;;;;2.17;2.08;;;26.00;99.90;;;;;;5028819;28;20113;-59
2023/06/12 09:40:58;;;;;;;2.85;2.05;;;26.10;99.90;;;;;;5029296;28;20049;-58
2023/06/12 09:43:27;;;;;;;2.83;1.90;;;25.90;99.90;;;;;;5030064;28;20032;-53
2023/06/12 09:45:53;;;;;;;2.50;2.30;;;26.40;99.90;;;;;;5026975;28;20517;-61
2023/06/12 09:48:19;;;;;;;2.40;2.25;;;26.70;99.90;;;;;;5030266;28;20038;-57
2023/06/12 09:50:47;;;;;;;4.53;2.63;;;26.70;99.90;;;;;;5032734;28;20542;-61
2023/06/12 09:53:16;;;;;;;2.05;1.90;;;26.60;99.90;;;;;;5028275;28;20029;-62
2023/06/12 09:55:44;;;;;;;2.33;2.13;;;26.80;99.90;;;;;;5030536;28;20029;-52
2023/06/12 09:58:13;;;;;;;2.55;2.17;;;26.80;99.90;;;;;;5025835;28;20021;-54
2023/06/12 10:00:39;;;;;;;3.92;2.40;;;26.80;99.90;;;;;;5033290;28;20479;-55
2023/06/12 10:03:10;;;;;;;2.80;2.20;;;26.70;99.90;;;;;;5028042;28;20052;-53
2023/06/12 10:05:48;;;;;;;8.20;3.53;;;26.50;99.90;;;;;;5028172;28;20092;-52
2023/06/12 10:08:16;;;;;;;3.40;2.88;;;26.50;99.90;;;;;;5030551;28;20437;-54
2023/06/12 10:10:43;;;;;;;2.83;2.25;;;26.40;99.90;;;;;;5030878;28;20053;-62
2023/06/12 10:13:10;;;;;;;3.50;3.00;;;26.40;99.90;;;;;;5027080;28;20108;-61
2023/06/12 10:15:37;;;;;;;4.07;2.95;;;26.30;99.90;;;;;;5031618;28;20032;-61
2023/06/12 10:18:05;;;;;;;5.70;3.05;;;26.40;99.90;;;;;;5028800;28;20024;-55
2023/06/12 10:20:32;;;;;;;2.63;2.42;;;26.30;99.90;;;;;;5025334;28;20058;-50
2023/06/12 10:22:58;;;;;;;2.78;2.17;;;26.60;99.90;;;;;;5026480;28;20052;-60
2023/06/12 10:25:24;;;;;;;4.35;2.45;;;26.70;99.90;;;;;;5032489;28;20032;-54
2023/06/12 10:27:53;;;;;;;3.65;2.58;;;26.80;99.90;;;;;;5032580;28;20483;-54
2023/06/12 10:30:19;;;;;;;3.03;2.72;;;26.80;99.90;;;;;;5026136;28;20522;-53
2023/06/12 10:32:45;;;;;;;6.15;2.70;;;26.80;99.90;;;;;;5030165;28;20057;-54
2023/06/12 10:35:12;;;;;;;4.53;3.05;;;27.00;99.90;;;;;;5030725;28;20540;-53
2023/06/12 10:37:46;;;;;;;4.95;3.42;;;27.20;99.90;;;;;;5033908;28;20482;-54
2023/06/12 10:40:13;;;;;;;3.40;2.78;;;27.30;99.90;;;;;;5027496;28;20076;-54
2023/06/12 10:42:42;;;;;;;3.28;2.97;;;27.40;99.90;;;;;;5031702;28;20021;-53
2023/06/12 10:45:17;;;;;;;4.45;2.90;;;27.50;99.90;;;;;;5027137;28;20034;-60
2023/06/12 10:48:08;;;;;;;4.47;3.15;;;27.90;99.90;;;;;;5025832;28;20041;-62
2023/06/12 10:50:35;;;;;;;3.28;2.97;;;28.10;99.90;;;;;;5039251;28;20103;-62
2023/06/12 10:53:13;;;;;;;3.10;2.88;;;28.20;99.90;;;;;;5035905;28;20024;-62
2023/06/12 10:55:41;;;;;;;4.22;2.58;;;28.10;99.90;;;;;;5040174;28;20021;-62
2023/06/12 10:58:12;;;;;;;3.92;3.25;;;28.20;99.90;;;;;;5032738;28;20025;-62
2023/06/12 11:00:51;;;;;;;3.92;2.88;;;28.50;99.90;;;;;;5036384;28;20021;-62
2023/06/12 11:03:25;;;;;;;4.65;3.40;;;28.50;99.90;;;;;;5032873;28;20104;-62
2023/06/12 11:05:55;;;;;;;3.53;2.65;;;28.80;99.90;;;;;;5039474;28;20034;-63
2023/06/12 11:08:23;;;;;;;5.53;3.63;;;29.10;99.90;;;;;;5036274;28;20044;-63
2023/06/12 11:10:50;;;;;;;3.78;3.47;;;29.30;99.90;;;;;;5041819;28;20104;-62
2023/06/12 11:13:15;;;;;;;3.70;3.40;;;29.40;99.90;;;;;;5038527;28;20104;-62
2023/06/12 11:15:45;;;;;;;3.75;3.45;;;29.40;99.90;;;;;;5038878;28;20096;-62
2023/06/12 11:18:13;;;;;;;3.20;2.95;;;30.00;99.90;;;;;;5038722;28;20033;-63
2023/06/12 11:20:39;;;;;;;3.10;2.90;;;33.40;99.90;;;;;;5036603;28;20499;-63
2023/06/12 11:23:06;;;;;;;6.00;4.15;;;36.30;99.90;;;;;;5039123;28;20025;-62
2023/06/12 11:25:42;;;;;;;3.92;3.63;;;38.50;99.90;;;;;;5037756;28;20467;-63
2023/06/12 11:28:09;;;;;;;6.20;4.78;;;39.60;99.90;;;;;;5039174;28;20029;-63
2023/06/12 11:30:35;;;;;;;4.45;4.05;;;40.70;99.90;;;;;;5035931;28;20617;-63
2023/06/12 11:33:19;;;;;;;6.07;3.92;;;41.70;99.90;;;;;;5035749;28;20104;-63
2023/06/12 11:35:47;;;;;;;5.45;4.97;;;;;;;;;;5038651;28;20071;-63
2023/06/12 11:38:14;;;;;;;5.40;4.88;;;41.10;99.90;;;;;;5038502;28;20055;-63
2023/06/12 11:40:41;;;;;;;4.15;3.85;;;42.10;99.90;;;;;;5041060;28;20025;-63
2023/06/12 11:43:07;;;;;;;4.90;4.47;;;43.20;99.90;;;;;;5041808;28;20021;-63
2023/06/12 11:45:33;;;;;;;4.57;4.28;;;42.10;99.90;;;;;;5034230;28;20647;-63
2023/06/12 11:48:01;;;;;;;3.92;3.70;;;41.40;99.90;;;;;;5039120;28;20033;-63
2023/06/12 11:50:27;;;;;;;4.53;3.58;;;38.10;99.90;;;;;;5029669;28;20045;-63
2023/06/12 11:52:55;;;;;;;5.22;4.75;;;38.10;99.90;;;;;;5041617;28;20021;-63
2023/06/12 11:55:21;;;;;;;5.13;4.82;;;38.80;99.90;;;;;;5035928;28;20021;-63
2023/06/12 11:57:49;;;;;;;5.47;5.07;;;39.70;99.90;;;;;;5040527;28;20033;-63
2023/06/12 12:00:18;;;;;;;4.70;4.40;;;38.70;99.90;;;;;;5038623;28;20533;-63
2023/06/12 12:02:49;;;;;;;4.35;4.07;;;37.20;99.90;;;;;;5034405;28;20474;-63
2023/06/12 12:05:26;;;;;;;4.30;4.05;;;36.70;99.90;;;;;;5036490;28;20501;-63
2023/06/12 12:07:59;;;;;;;5.00;4.60;;;37.00;99.90;;;;;;5035321;28;20133;-63
2023/06/12 12:10:29;;;;;;;4.65;4.28;;;37.00;99.90;;;;;;5038376;28;20030;-63
2023/06/12 12:13:03;;;;;;;4.60;4.20;;;37.80;99.90;;;;;;5048984;28;20497;-63
2023/06/12 12:15:33;;;;;;;4.90;4.60;;;38.40;99.90;;;;;;5037125;28;20030;-63
2023/06/12 12:17:59;;;;;;;5.15;4.82;;;37.10;99.90;;;;;;5037382;28;20549;-63
2023/06/12 12:20:26;;;;;;;4.65;4.35;;;34.90;99.90;;;;;;5036460;28;20113;-63
2023/06/12 12:22:56;;;;;;;3.97;3.78;;;33.70;99.90;;;;;;5045062;28;20022;-63
2023/06/12 12:25:25;;;;;;;4.18;3.72;;;34.60;99.90;;;;;;5039378;28;20079;-63
2023/06/12 12:27:51;;;;;;;5.03;4.63;;;35.80;99.90;;;;;;5039854;28;20037;-63
2023/06/12 12:30:21;;;;;;;11.20;4.28;;;36.30;99.90;;;;;;5033668;28;20542;-74
2023/06/12 12:32:52;;;;;;;5.57;4.47;;;36.80;99.90;;;;;;5041920;28;20021;-67
2023/06/12 12:35:19;;;;;;;5.25;4.78;;;37.00;99.90;;;;;;5032475;28;20022;-67
2023/06/12 12:37:46;;;;;;;4.78;4.38;;;36.00;99.90;;;;;;5029442;28;20116;-67
2023/06/12 12:40:13;;;;;;;5.78;5.28;;;35.70;99.90;;;;;;5040207;28;20021;-64
2023/06/12 12:42:41;;;;;;;6.88;5.20;;;35.90;99.90;;;;;;5041334;28;20064;-71
2023/06/12 12:45:10;;;;;;;4.50;4.20;;;35.50;99.90;;;;;;5028901;28;20036;-69
2023/06/12 12:47:35;;;;;;;5.07;4.50;;;35.90;99.90;;;;;;5074166;28;20041;-70
2023/06/12 12:50:03;;;;;;;4.45;4.18;;;36.20;99.90;;;;;;5028083;28;20048;-69
2023/06/12 12:52:32;;;;;;;3.85;3.63;;;36.70;99.90;;;;;;5031183;28;20025;-70
2023/06/12 12:54:58;;;;;;;5.00;4.65;;;36.20;99.90;;;;;;5040204;28;20150;-70
2023/06/12 12:57:24;;;;;;;5.43;4.97;;;36.30;99.90;;;;;;5036735;28;20501;-73
2023/06/12 12:59:50;;;;;;;5.20;4.70;;;34.90;99.90;;;;;;5025246;28;20029;-69
2023/06/12 13:02:16;;;;;;;3.85;3.60;;;33.70;99.90;;;;;;5031278;28;20379;-65
2023/06/12 13:04:45;;;;;;;4.10;3.80;;;33.70;99.90;;;;;;5020728;28;20045;-70
2023/06/12 13:07:11;;;;;;;5.70;5.30;;;33.10;99.90;;;;;;5026026;28;20395;-69
2023/06/12 13:09:45;;;;;;;4.28;3.97;;;33.20;99.90;;;;;;5033611;28;20044;-68
2023/06/12 13:12:11;;;;;;;5.43;5.05;;;35.60;99.90;;;;;;5032709;28;20036;-68